sensor_id;sensor_type;location;lat;lon;timestamp;P1;durP1;ratioP1;P2;durP2;ratioP2
49015;SDS011;34830;44.064;12.566;2023-04-03T00:01:32;12.30;;;6.45;;
49015;SDS011;34830;44.064;12.566;2023-04-03T00:03:58;12.43;;;6.47;;
49015;SDS011;34830;44.064;12.566;2023-04-03T00:06:25;10.05;;;6.05;;
49015;SDS011;34830;44.064;12.566;2023-04-03T00:08:52;10.77;;;5.85;;
49015;SDS011;34830;44.064;12.566;2023-04-03T00:11:18;12.25;;;6.88;;
49015;SDS011;34830;44.064;12.566;2023-04-03T00:13:45;11.23;;;6.63;;
49015;SDS011;34830;44.064;12.566;2023-04-03T00:16:11;10.25;;;6.97;;
49015;SDS011;34830;44.064;12.566;2023-04-03T00:18:38;18.23;;;6.07;;
49015;SDS011;34830;44.064;12.566;2023-04-03T00:21:05;12.93;;;5.90;;
49015;SDS011;34830;44.064;12.566;2023-04-03T00:23:31;9.77;;;5.50;;
49015;SDS011;34830;44.064;12.566;2023-04-03T00:25:58;10.48;;;6.25;;
49015;SDS011;34830;44.064;12.566;2023-04-03T00:28:24;10.02;;;6.10;;
49015;SDS011;34830;44.064;12.566;2023-04-03T00:30:50;9.60;;;5.93;;
49015;SDS011;34830;44.064;12.566;2023-04-03T00:33:16;11.00;;;5.10;;
49015;SDS011;34830;44.064;12.566;2023-04-03T00:35:42;7.63;;;5.05;;
49015;SDS011;34830;44.064;12.566;2023-04-03T00:38:08;10.10;;;5.38;;
49015;SDS011;34830;44.064;12.566;2023-04-03T00:40:36;7.22;;;4.93;;
49015;SDS011;34830;44.064;12.566;2023-04-03T00:43:08;10.55;;;5.85;;
49015;SDS011;34830;44.064;12.566;2023-04-03T00:45:39;9.82;;;5.90;;
49015;SDS011;34830;44.064;12.566;2023-04-03T00:48:06;8.65;;;5.38;;
49015;SDS011;34830;44.064;12.566;2023-04-03T00:50:35;8.70;;;5.38;;
49015;SDS011;34830;44.064;12.566;2023-04-03T00:53:04;9.57;;;5.82;;
49015;SDS011;34830;44.064;12.566;2023-04-03T00:55:30;9.38;;;5.70;;
49015;SDS011;34830;44.064;12.566;2023-04-03T00:57:57;10.27;;;5.72;;
49015;SDS011;34830;44.064;12.566;2023-04-03T01:00:24;8.20;;;5.28;;
49015;SDS011;34830;44.064;12.566;2023-04-03T01:02:50;9.95;;;5.90;;
49015;SDS011;34830;44.064;12.566;2023-04-03T01:05:17;11.05;;;6.30;;
49015;SDS011;34830;44.064;12.566;2023-04-03T01:07:44;11.32;;;6.07;;
49015;SDS011;34830;44.064;12.566;2023-04-03T01:10:11;11.73;;;6.45;;
49015;SDS011;34830;44.064;12.566;2023-04-03T01:12:40;9.05;;;5.53;;
49015;SDS011;34830;44.064;12.566;2023-04-03T01:17:45;9.30;;;5.88;;
49015;SDS011;34830;44.064;12.566;2023-04-03T01:25:35;11.68;;;6.25;;
49015;SDS011;34830;44.064;12.566;2023-04-03T01:28:06;8.98;;;6.13;;
49015;SDS011;34830;44.064;12.566;2023-04-03T01:30:36;12.75;;;5.72;;
49015;SDS011;34830;44.064;12.566;2023-04-03T01:33:09;12.07;;;6.45;;
49015;SDS011;34830;44.064;12.566;2023-04-03T01:35:35;9.13;;;5.90;;
49015;SDS011;34830;44.064;12.566;2023-04-03T01:38:01;10.80;;;6.68;;
49015;SDS011;34830;44.064;12.566;2023-04-03T01:40:27;10.70;;;6.28;;
49015;SDS011;34830;44.064;12.566;2023-04-03T01:42:53;11.27;;;6.13;;
49015;SDS011;34830;44.064;12.566;2023-04-03T01:45:19;10.07;;;6.00;;
49015;SDS011;34830;44.064;12.566;2023-04-03T01:47:45;10.52;;;5.93;;
49015;SDS011;34830;44.064;12.566;2023-04-03T01:50:11;12.07;;;6.60;;
49015;SDS011;34830;44.064;12.566;2023-04-03T01:52:37;9.07;;;5.47;;
49015;SDS011;34830;44.064;12.566;2023-04-03T01:55:04;11.68;;;6.18;;
49015;SDS011;34830;44.064;12.566;2023-04-03T01:57:30;10.07;;;5.88;;
49015;SDS011;34830;44.064;12.566;2023-04-03T01:59:57;10.57;;;6.13;;
49015;SDS011;34830;44.064;12.566;2023-04-03T02:02:23;9.48;;;6.65;;
49015;SDS011;34830;44.064;12.566;2023-04-03T02:04:51;8.40;;;6.05;;
49015;SDS011;34830;44.064;12.566;2023-04-03T02:07:17;10.52;;;6.35;;
49015;SDS011;34830;44.064;12.566;2023-04-03T02:09:43;11.13;;;6.35;;
49015;SDS011;34830;44.064;12.566;2023-04-03T02:12:09;10.85;;;6.80;;
49015;SDS011;34830;44.064;12.566;2023-04-03T02:14:35;10.38;;;5.50;;
49015;SDS011;34830;44.064;12.566;2023-04-03T02:17:02;11.93;;;6.72;;
49015;SDS011;34830;44.064;12.566;2023-04-03T02:19:34;10.10;;;6.15;;
49015;SDS011;34830;44.064;12.566;2023-04-03T02:22:02;8.57;;;4.82;;
49015;SDS011;34830;44.064;12.566;2023-04-03T02:24:29;10.43;;;6.05;;
49015;SDS011;34830;44.064;12.566;2023-04-03T02:26:55;13.68;;;7.45;;
49015;SDS011;34830;44.064;12.566;2023-04-03T02:29:21;10.60;;;6.03;;
49015;SDS011;34830;44.064;12.566;2023-04-03T02:31:48;10.00;;;5.97;;
49015;SDS011;34830;44.064;12.566;2023-04-03T02:34:14;9.73;;;5.80;;
49015;SDS011;34830;44.064;12.566;2023-04-03T02:36:41;12.10;;;6.07;;
49015;SDS011;34830;44.064;12.566;2023-04-03T02:39:09;10.40;;;6.57;;
49015;SDS011;34830;44.064;12.566;2023-04-03T02:41:35;14.35;;;6.03;;
49015;SDS011;34830;44.064;12.566;2023-04-03T02:44:05;11.13;;;5.47;;
49015;SDS011;34830;44.064;12.566;2023-04-03T02:46:32;10.95;;;5.40;;
49015;SDS011;34830;44.064;12.566;2023-04-03T02:48:58;6.95;;;2.15;;
49015;SDS011;34830;44.064;12.566;2023-04-03T02:51:24;9.23;;;1.48;;
49015;SDS011;34830;44.064;12.566;2023-04-03T02:53:52;6.40;;;1.15;;
49015;SDS011;34830;44.064;12.566;2023-04-03T02:56:22;4.90;;;1.10;;
49015;SDS011;34830;44.064;12.566;2023-04-03T02:58:48;12.52;;;1.13;;
49015;SDS011;34830;44.064;12.566;2023-04-03T03:01:15;8.48;;;1.35;;
49015;SDS011;34830;44.064;12.566;2023-04-03T03:03:41;10.57;;;1.40;;
49015;SDS011;34830;44.064;12.566;2023-04-03T03:06:08;6.10;;;0.95;;
49015;SDS011;34830;44.064;12.566;2023-04-03T03:08:36;8.05;;;1.05;;
49015;SDS011;34830;44.064;12.566;2023-04-03T03:11:02;14.43;;;1.35;;
49015;SDS011;34830;44.064;12.566;2023-04-03T03:13:29;6.18;;;1.85;;
49015;SDS011;34830;44.064;12.566;2023-04-03T03:15:56;9.82;;;1.10;;
49015;SDS011;34830;44.064;12.566;2023-04-03T03:18:23;14.07;;;1.58;;
49015;SDS011;34830;44.064;12.566;2023-04-03T03:20:53;15.40;;;1.65;;
49015;SDS011;34830;44.064;12.566;2023-04-03T03:23:21;6.97;;;1.37;;
49015;SDS011;34830;44.064;12.566;2023-04-03T03:25:47;12.52;;;1.58;;
49015;SDS011;34830;44.064;12.566;2023-04-03T03:28:13;13.80;;;1.95;;
49015;SDS011;34830;44.064;12.566;2023-04-03T03:30:40;10.25;;;1.30;;
49015;SDS011;34830;44.064;12.566;2023-04-03T03:33:07;10.40;;;1.55;;
49015;SDS011;34830;44.064;12.566;2023-04-03T03:35:33;7.88;;;1.42;;
49015;SDS011;34830;44.064;12.566;2023-04-03T03:37:59;12.77;;;1.85;;
49015;SDS011;34830;44.064;12.566;2023-04-03T03:40:25;10.48;;;1.80;;
49015;SDS011;34830;44.064;12.566;2023-04-03T03:42:52;9.48;;;1.90;;
49015;SDS011;34830;44.064;12.566;2023-04-03T03:45:18;12.73;;;1.92;;
49015;SDS011;34830;44.064;12.566;2023-04-03T03:47:44;8.57;;;1.83;;
49015;SDS011;34830;44.064;12.566;2023-04-03T03:50:11;16.80;;;2.85;;
49015;SDS011;34830;44.064;12.566;2023-04-03T03:52:37;16.20;;;2.55;;
49015;SDS011;34830;44.064;12.566;2023-04-03T03:55:04;12.23;;;2.45;;
49015;SDS011;34830;44.064;12.566;2023-04-03T03:57:31;22.33;;;3.60;;
49015;SDS011;34830;44.064;12.566;2023-04-03T03:59:57;16.17;;;2.60;;
49015;SDS011;34830;44.064;12.566;2023-04-03T04:02:23;11.45;;;2.60;;
49015;SDS011;34830;44.064;12.566;2023-04-03T04:04:50;15.57;;;4.15;;
49015;SDS011;34830;44.064;12.566;2023-04-03T04:07:16;13.82;;;2.58;;
49015;SDS011;34830;44.064;12.566;2023-04-03T04:09:43;15.27;;;2.95;;
49015;SDS011;34830;44.064;12.566;2023-04-03T04:12:09;14.93;;;2.30;;
49015;SDS011;34830;44.064;12.566;2023-04-03T04:14:36;18.23;;;2.80;;
49015;SDS011;34830;44.064;12.566;2023-04-03T04:17:02;19.83;;;3.63;;
49015;SDS011;34830;44.064;12.566;2023-04-03T04:19:28;17.27;;;3.20;;
49015;SDS011;34830;44.064;12.566;2023-04-03T04:21:54;18.05;;;3.50;;
49015;SDS011;34830;44.064;12.566;2023-04-03T04:24:20;15.48;;;2.28;;
49015;SDS011;34830;44.064;12.566;2023-04-03T04:26:50;18.02;;;2.38;;
49015;SDS011;34830;44.064;12.566;2023-04-03T04:29:17;11.13;;;2.75;;
49015;SDS011;34830;44.064;12.566;2023-04-03T04:31:46;13.73;;;3.10;;
49015;SDS011;34830;44.064;12.566;2023-04-03T04:34:12;15.95;;;3.53;;
49015;SDS011;34830;44.064;12.566;2023-04-03T04:36:39;20.73;;;3.08;;
49015;SDS011;34830;44.064;12.566;2023-04-03T04:39:05;16.52;;;3.15;;
49015;SDS011;34830;44.064;12.566;2023-04-03T04:41:31;8.02;;;2.00;;
49015;SDS011;34830;44.064;12.566;2023-04-03T04:43:58;14.20;;;2.58;;
49015;SDS011;34830;44.064;12.566;2023-04-03T04:46:25;27.67;;;3.30;;
49015;SDS011;34830;44.064;12.566;2023-04-03T04:48:56;20.63;;;2.47;;
49015;SDS011;34830;44.064;12.566;2023-04-03T04:51:23;16.33;;;2.90;;
49015;SDS011;34830;44.064;12.566;2023-04-03T04:53:49;20.45;;;3.60;;
49015;SDS011;34830;44.064;12.566;2023-04-03T04:56:17;16.02;;;2.30;;
49015;SDS011;34830;44.064;12.566;2023-04-03T04:58:43;19.55;;;4.80;;
49015;SDS011;34830;44.064;12.566;2023-04-03T05:01:10;15.85;;;2.78;;
49015;SDS011;34830;44.064;12.566;2023-04-03T05:03:43;14.38;;;3.65;;
49015;SDS011;34830;44.064;12.566;2023-04-03T05:06:10;24.45;;;3.95;;
49015;SDS011;34830;44.064;12.566;2023-04-03T05:08:37;14.10;;;2.65;;
49015;SDS011;34830;44.064;12.566;2023-04-03T05:11:04;15.65;;;3.10;;
49015;SDS011;34830;44.064;12.566;2023-04-03T05:13:30;18.30;;;3.60;;
49015;SDS011;34830;44.064;12.566;2023-04-03T05:15:57;18.60;;;2.83;;
49015;SDS011;34830;44.064;12.566;2023-04-03T05:18:23;12.93;;;3.33;;
49015;SDS011;34830;44.064;12.566;2023-04-03T05:20:52;21.17;;;2.88;;
49015;SDS011;34830;44.064;12.566;2023-04-03T05:23:19;16.70;;;2.75;;
49015;SDS011;34830;44.064;12.566;2023-04-03T05:25:46;12.70;;;2.42;;
49015;SDS011;34830;44.064;12.566;2023-04-03T05:28:14;13.30;;;3.20;;
49015;SDS011;34830;44.064;12.566;2023-04-03T05:30:40;15.45;;;3.22;;
49015;SDS011;34830;44.064;12.566;2023-04-03T05:33:07;17.98;;;3.35;;
49015;SDS011;34830;44.064;12.566;2023-04-03T05:35:45;24.52;;;4.00;;
49015;SDS011;34830;44.064;12.566;2023-04-03T05:38:17;17.25;;;3.10;;
49015;SDS011;34830;44.064;12.566;2023-04-03T05:40:43;19.90;;;3.10;;
49015;SDS011;34830;44.064;12.566;2023-04-03T05:43:09;17.27;;;2.92;;
49015;SDS011;34830;44.064;12.566;2023-04-03T05:45:38;11.25;;;2.83;;
49015;SDS011;34830;44.064;12.566;2023-04-03T05:48:04;8.23;;;2.17;;
49015;SDS011;34830;44.064;12.566;2023-04-03T05:50:31;18.67;;;3.10;;
49015;SDS011;34830;44.064;12.566;2023-04-03T05:52:57;13.00;;;3.50;;
49015;SDS011;34830;44.064;12.566;2023-04-03T05:55:26;17.10;;;3.45;;
49015;SDS011;34830;44.064;12.566;2023-04-03T05:57:52;18.05;;;2.88;;
49015;SDS011;34830;44.064;12.566;2023-04-03T06:00:18;26.48;;;4.10;;
49015;SDS011;34830;44.064;12.566;2023-04-03T06:02:53;23.77;;;3.22;;
49015;SDS011;34830;44.064;12.566;2023-04-03T06:05:22;11.57;;;2.75;;
49015;SDS011;34830;44.064;12.566;2023-04-03T06:07:49;20.45;;;3.40;;
49015;SDS011;34830;44.064;12.566;2023-04-03T06:10:16;20.30;;;2.85;;
49015;SDS011;34830;44.064;12.566;2023-04-03T06:12:44;16.98;;;3.97;;
49015;SDS011;34830;44.064;12.566;2023-04-03T06:15:10;7.82;;;2.60;;
49015;SDS011;34830;44.064;12.566;2023-04-03T06:17:39;21.67;;;3.08;;
49015;SDS011;34830;44.064;12.566;2023-04-03T06:20:05;11.25;;;3.25;;
49015;SDS011;34830;44.064;12.566;2023-04-03T06:22:31;19.48;;;2.90;;
49015;SDS011;34830;44.064;12.566;2023-04-03T06:24:58;16.42;;;3.20;;
49015;SDS011;34830;44.064;12.566;2023-04-03T06:27:24;13.45;;;3.05;;
49015;SDS011;34830;44.064;12.566;2023-04-03T06:29:50;9.77;;;2.17;;
49015;SDS011;34830;44.064;12.566;2023-04-03T06:32:16;18.67;;;2.78;;
49015;SDS011;34830;44.064;12.566;2023-04-03T06:34:42;15.13;;;2.38;;
49015;SDS011;34830;44.064;12.566;2023-04-03T06:37:15;13.55;;;2.15;;
49015;SDS011;34830;44.064;12.566;2023-04-03T06:39:42;12.98;;;2.53;;
49015;SDS011;34830;44.064;12.566;2023-04-03T06:42:08;12.73;;;2.90;;
49015;SDS011;34830;44.064;12.566;2023-04-03T06:44:39;16.92;;;3.00;;
49015;SDS011;34830;44.064;12.566;2023-04-03T06:47:05;16.55;;;3.03;;
49015;SDS011;34830;44.064;12.566;2023-04-03T06:49:31;23.33;;;4.88;;
49015;SDS011;34830;44.064;12.566;2023-04-03T06:51:57;28.95;;;3.25;;
49015;SDS011;34830;44.064;12.566;2023-04-03T06:54:23;13.45;;;3.55;;
49015;SDS011;34830;44.064;12.566;2023-04-03T06:56:49;24.95;;;3.60;;
49015;SDS011;34830;44.064;12.566;2023-04-03T06:59:16;21.60;;;3.78;;
49015;SDS011;34830;44.064;12.566;2023-04-03T07:01:42;14.80;;;2.67;;
49015;SDS011;34830;44.064;12.566;2023-04-03T07:04:08;19.17;;;2.40;;
49015;SDS011;34830;44.064;12.566;2023-04-03T07:06:34;13.45;;;2.38;;
49015;SDS011;34830;44.064;12.566;2023-04-03T07:09:01;14.25;;;3.50;;
49015;SDS011;34830;44.064;12.566;2023-04-03T07:11:27;14.77;;;2.95;;
49015;SDS011;34830;44.064;12.566;2023-04-03T07:13:53;12.02;;;2.55;;
49015;SDS011;34830;44.064;12.566;2023-04-03T07:16:19;14.23;;;3.17;;
49015;SDS011;34830;44.064;12.566;2023-04-03T07:18:45;11.45;;;2.38;;
49015;SDS011;34830;44.064;12.566;2023-04-03T07:21:12;18.20;;;3.03;;
49015;SDS011;34830;44.064;12.566;2023-04-03T07:23:38;18.85;;;2.78;;
49015;SDS011;34830;44.064;12.566;2023-04-03T07:26:05;16.85;;;2.72;;
49015;SDS011;34830;44.064;12.566;2023-04-03T07:28:31;13.93;;;2.63;;
49015;SDS011;34830;44.064;12.566;2023-04-03T07:31:02;16.58;;;2.30;;
49015;SDS011;34830;44.064;12.566;2023-04-03T07:33:30;16.85;;;2.33;;
49015;SDS011;34830;44.064;12.566;2023-04-03T07:35:56;15.60;;;2.53;;
49015;SDS011;34830;44.064;12.566;2023-04-03T07:38:22;21.63;;;2.88;;
49015;SDS011;34830;44.064;12.566;2023-04-03T07:40:49;32.30;;;3.17;;
49015;SDS011;34830;44.064;12.566;2023-04-03T07:43:17;16.88;;;2.10;;
49015;SDS011;34830;44.064;12.566;2023-04-03T07:45:43;25.30;;;3.15;;
49015;SDS011;34830;44.064;12.566;2023-04-03T07:48:10;25.45;;;3.65;;
49015;SDS011;34830;44.064;12.566;2023-04-03T07:50:36;18.65;;;2.50;;
49015;SDS011;34830;44.064;12.566;2023-04-03T07:53:02;21.65;;;3.65;;
49015;SDS011;34830;44.064;12.566;2023-04-03T07:55:29;34.50;;;3.22;;
49015;SDS011;34830;44.064;12.566;2023-04-03T07:57:55;21.08;;;3.80;;
49015;SDS011;34830;44.064;12.566;2023-04-03T08:00:21;29.38;;;3.50;;
49015;SDS011;34830;44.064;12.566;2023-04-03T08:02:47;26.75;;;4.53;;
49015;SDS011;34830;44.064;12.566;2023-04-03T08:05:17;28.10;;;4.10;;
49015;SDS011;34830;44.064;12.566;2023-04-03T08:07:44;22.23;;;3.13;;
49015;SDS011;34830;44.064;12.566;2023-04-03T08:10:11;13.73;;;2.40;;
49015;SDS011;34830;44.064;12.566;2023-04-03T08:12:37;22.23;;;2.92;;
49015;SDS011;34830;44.064;12.566;2023-04-03T08:15:03;36.00;;;4.50;;
49015;SDS011;34830;44.064;12.566;2023-04-03T08:17:30;30.35;;;2.95;;
49015;SDS011;34830;44.064;12.566;2023-04-03T08:19:56;21.73;;;2.92;;
49015;SDS011;34830;44.064;12.566;2023-04-03T08:22:22;20.15;;;4.13;;
49015;SDS011;34830;44.064;12.566;2023-04-03T08:24:48;27.15;;;4.05;;
49015;SDS011;34830;44.064;12.566;2023-04-03T08:27:14;21.45;;;2.90;;
49015;SDS011;34830;44.064;12.566;2023-04-03T08:29:40;18.10;;;3.70;;
49015;SDS011;34830;44.064;12.566;2023-04-03T08:32:07;21.63;;;2.83;;
49015;SDS011;34830;44.064;12.566;2023-04-03T08:34:33;26.45;;;4.78;;
49015;SDS011;34830;44.064;12.566;2023-04-03T08:37:00;17.75;;;2.53;;
49015;SDS011;34830;44.064;12.566;2023-04-03T08:39:27;19.55;;;3.15;;
49015;SDS011;34830;44.064;12.566;2023-04-03T08:41:54;31.60;;;4.38;;
49015;SDS011;34830;44.064;12.566;2023-04-03T08:45:09;25.38;;;3.80;;
49015;SDS011;34830;44.064;12.566;2023-04-03T08:47:28;32.50;;;5.88;;
49015;SDS011;34830;44.064;12.566;2023-04-03T08:50:23;18.42;;;3.35;;
49015;SDS011;34830;44.064;12.566;2023-04-03T08:52:55;22.75;;;3.53;;
49015;SDS011;34830;44.064;12.566;2023-04-03T08:55:27;22.52;;;4.38;;
49015;SDS011;34830;44.064;12.566;2023-04-03T08:58:00;22.10;;;3.03;;
49015;SDS011;34830;44.064;12.566;2023-04-03T09:00:28;20.20;;;3.10;;
49015;SDS011;34830;44.064;12.566;2023-04-03T09:02:58;17.08;;;2.92;;
49015;SDS011;34830;44.064;12.566;2023-04-03T09:05:29;23.17;;;2.88;;
49015;SDS011;34830;44.064;12.566;2023-04-03T09:10:38;20.88;;;2.95;;
49015;SDS011;34830;44.064;12.566;2023-04-03T09:13:08;30.02;;;4.82;;
49015;SDS011;34830;44.064;12.566;2023-04-03T09:15:57;15.73;;;3.30;;
49015;SDS011;34830;44.064;12.566;2023-04-03T09:18:28;13.82;;;2.60;;
49015;SDS011;34830;44.064;12.566;2023-04-03T09:23:52;20.92;;;3.05;;
49015;SDS011;34830;44.064;12.566;2023-04-03T09:26:25;28.95;;;3.63;;
49015;SDS011;34830;44.064;12.566;2023-04-03T09:28:55;25.98;;;3.10;;
49015;SDS011;34830;44.064;12.566;2023-04-03T09:31:26;33.42;;;4.25;;
49015;SDS011;34830;44.064;12.566;2023-04-03T09:33:55;24.48;;;3.67;;
49015;SDS011;34830;44.064;12.566;2023-04-03T09:39:18;17.13;;;2.55;;
49015;SDS011;34830;44.064;12.566;2023-04-03T09:41:56;16.08;;;2.67;;
49015;SDS011;34830;44.064;12.566;2023-04-03T09:44:31;22.02;;;2.80;;
49015;SDS011;34830;44.064;12.566;2023-04-03T09:46:59;25.90;;;3.08;;
49015;SDS011;34830;44.064;12.566;2023-04-03T09:49:43;25.10;;;3.13;;
49015;SDS011;34830;44.064;12.566;2023-04-03T09:52:26;24.60;;;2.88;;
49015;SDS011;34830;44.064;12.566;2023-04-03T09:54:52;13.20;;;3.67;;
49015;SDS011;34830;44.064;12.566;2023-04-03T09:57:18;35.83;;;3.58;;
49015;SDS011;34830;44.064;12.566;2023-04-03T09:59:46;19.83;;;3.03;;
49015;SDS011;34830;44.064;12.566;2023-04-03T10:02:37;37.47;;;3.83;;
49015;SDS011;34830;44.064;12.566;2023-04-03T10:05:05;16.48;;;3.35;;
49015;SDS011;34830;44.064;12.566;2023-04-03T10:07:52;20.50;;;3.15;;
49015;SDS011;34830;44.064;12.566;2023-04-03T10:10:21;17.15;;;3.17;;
49015;SDS011;34830;44.064;12.566;2023-04-03T10:13:03;19.52;;;4.03;;
49015;SDS011;34830;44.064;12.566;2023-04-03T10:15:33;15.18;;;3.00;;
49015;SDS011;34830;44.064;12.566;2023-04-03T10:18:03;14.75;;;3.03;;
49015;SDS011;34830;44.064;12.566;2023-04-03T10:20:37;23.20;;;3.53;;
49015;SDS011;34830;44.064;12.566;2023-04-03T10:31:25;12.88;;;2.20;;
49015;SDS011;34830;44.064;12.566;2023-04-03T10:53:40;15.50;;;2.53;;
49015;SDS011;34830;44.064;12.566;2023-04-03T10:58:34;15.73;;;2.00;;
49015;SDS011;34830;44.064;12.566;2023-04-03T11:01:14;12.25;;;2.05;;
49015;SDS011;34830;44.064;12.566;2023-04-03T11:03:49;11.55;;;3.28;;
49015;SDS011;34830;44.064;12.566;2023-04-03T11:06:19;14.93;;;3.22;;
49015;SDS011;34830;44.064;12.566;2023-04-03T11:09:02;20.95;;;2.92;;
49015;SDS011;34830;44.064;12.566;2023-04-03T11:11:36;18.15;;;4.03;;
49015;SDS011;34830;44.064;12.566;2023-04-03T11:16:31;23.80;;;3.58;;
49015;SDS011;34830;44.064;12.566;2023-04-03T11:27:41;21.10;;;3.00;;
49015;SDS011;34830;44.064;12.566;2023-04-03T11:30:16;17.02;;;3.67;;
49015;SDS011;34830;44.064;12.566;2023-04-03T11:35:47;13.40;;;2.20;;
49015;SDS011;34830;44.064;12.566;2023-04-03T11:38:35;20.48;;;2.78;;
49015;SDS011;34830;44.064;12.566;2023-04-03T11:41:05;13.88;;;2.13;;
49015;SDS011;34830;44.064;12.566;2023-04-03T11:43:32;21.25;;;2.70;;
49015;SDS011;34830;44.064;12.566;2023-04-03T11:46:03;18.40;;;4.45;;
49015;SDS011;34830;44.064;12.566;2023-04-03T11:53:42;12.60;;;1.65;;
49015;SDS011;34830;44.064;12.566;2023-04-03T11:56:28;13.15;;;1.90;;
49015;SDS011;34830;44.064;12.566;2023-04-03T12:04:13;11.23;;;2.00;;
49015;SDS011;34830;44.064;12.566;2023-04-03T12:06:43;18.80;;;2.83;;
49015;SDS011;34830;44.064;12.566;2023-04-03T12:10:01;46.42;;;4.90;;
49015;SDS011;34830;44.064;12.566;2023-04-03T12:16:04;22.67;;;3.55;;
49015;SDS011;34830;44.064;12.566;2023-04-03T12:21:04;13.50;;;2.20;;
49015;SDS011;34830;44.064;12.566;2023-04-03T12:23:34;14.82;;;2.47;;
49015;SDS011;34830;44.064;12.566;2023-04-03T12:26:24;16.98;;;2.47;;
49015;SDS011;34830;44.064;12.566;2023-04-03T12:28:51;18.33;;;2.00;;
49015;SDS011;34830;44.064;12.566;2023-04-03T12:31:19;17.63;;;2.28;;
49015;SDS011;34830;44.064;12.566;2023-04-03T12:33:51;11.68;;;2.67;;
49015;SDS011;34830;44.064;12.566;2023-04-03T12:36:33;14.75;;;2.33;;
49015;SDS011;34830;44.064;12.566;2023-04-03T12:39:03;15.63;;;2.67;;
49015;SDS011;34830;44.064;12.566;2023-04-03T12:41:58;15.77;;;1.73;;
49015;SDS011;34830;44.064;12.566;2023-04-03T12:44:38;19.58;;;2.88;;
49015;SDS011;34830;44.064;12.566;2023-04-03T12:47:15;15.15;;;2.15;;
49015;SDS011;34830;44.064;12.566;2023-04-03T12:49:52;16.10;;;2.25;;
49015;SDS011;34830;44.064;12.566;2023-04-03T12:52:22;17.63;;;3.15;;
49015;SDS011;34830;44.064;12.566;2023-04-03T12:54:53;17.48;;;2.30;;
49015;SDS011;34830;44.064;12.566;2023-04-03T12:57:22;9.02;;;1.40;;
49015;SDS011;34830;44.064;12.566;2023-04-03T12:59:50;8.93;;;1.70;;
49015;SDS011;34830;44.064;12.566;2023-04-03T13:02:24;6.82;;;1.63;;
49015;SDS011;34830;44.064;12.566;2023-04-03T13:04:51;6.55;;;1.13;;
49015;SDS011;34830;44.064;12.566;2023-04-03T13:07:19;10.43;;;1.27;;
49015;SDS011;34830;44.064;12.566;2023-04-03T13:09:54;7.57;;;1.88;;
49015;SDS011;34830;44.064;12.566;2023-04-03T13:12:21;13.32;;;2.08;;
49015;SDS011;34830;44.064;12.566;2023-04-03T13:14:51;9.55;;;2.30;;
49015;SDS011;34830;44.064;12.566;2023-04-03T13:17:22;9.88;;;1.90;;
49015;SDS011;34830;44.064;12.566;2023-04-03T13:19:48;8.50;;;2.00;;
49015;SDS011;34830;44.064;12.566;2023-04-03T13:22:25;19.48;;;2.10;;
49015;SDS011;34830;44.064;12.566;2023-04-03T13:24:54;7.68;;;1.80;;
49015;SDS011;34830;44.064;12.566;2023-04-03T13:27:22;9.18;;;1.77;;
49015;SDS011;34830;44.064;12.566;2023-04-03T13:29:52;9.13;;;2.63;;
49015;SDS011;34830;44.064;12.566;2023-04-03T13:32:21;13.30;;;2.53;;
49015;SDS011;34830;44.064;12.566;2023-04-03T13:34:49;8.43;;;1.95;;
49015;SDS011;34830;44.064;12.566;2023-04-03T13:37:34;12.43;;;1.38;;
49015;SDS011;34830;44.064;12.566;2023-04-03T13:40:08;10.85;;;1.75;;
49015;SDS011;34830;44.064;12.566;2023-04-03T13:42:37;12.45;;;2.25;;
49015;SDS011;34830;44.064;12.566;2023-04-03T13:47:38;10.70;;;1.65;;
49015;SDS011;34830;44.064;12.566;2023-04-03T13:56:18;13.93;;;1.55;;
49015;SDS011;34830;44.064;12.566;2023-04-03T13:58:29;11.10;;;2.10;;
49015;SDS011;34830;44.064;12.566;2023-04-03T14:01:11;19.75;;;2.13;;
49015;SDS011;34830;44.064;12.566;2023-04-03T14:03:44;9.60;;;2.05;;
49015;SDS011;34830;44.064;12.566;2023-04-03T14:06:12;26.90;;;2.80;;
49015;SDS011;34830;44.064;12.566;2023-04-03T14:08:41;10.68;;;1.92;;
49015;SDS011;34830;44.064;12.566;2023-04-03T14:11:41;9.70;;;2.33;;
49015;SDS011;34830;44.064;12.566;2023-04-03T14:14:06;11.32;;;2.13;;
49015;SDS011;34830;44.064;12.566;2023-04-03T14:16:39;11.60;;;2.15;;
49015;SDS011;34830;44.064;12.566;2023-04-03T14:19:11;10.70;;;2.05;;
49015;SDS011;34830;44.064;12.566;2023-04-03T14:21:44;17.35;;;2.30;;
49015;SDS011;34830;44.064;12.566;2023-04-03T14:24:10;15.90;;;2.13;;
49015;SDS011;34830;44.064;12.566;2023-04-03T14:26:37;10.70;;;1.88;;
49015;SDS011;34830;44.064;12.566;2023-04-03T14:29:03;22.63;;;2.42;;
49015;SDS011;34830;44.064;12.566;2023-04-03T14:31:29;16.73;;;2.40;;
49015;SDS011;34830;44.064;12.566;2023-04-03T14:33:55;14.80;;;2.53;;
49015;SDS011;34830;44.064;12.566;2023-04-03T14:36:22;18.17;;;2.80;;
49015;SDS011;34830;44.064;12.566;2023-04-03T14:38:51;31.27;;;3.60;;
49015;SDS011;34830;44.064;12.566;2023-04-03T14:41:18;11.73;;;2.67;;
49015;SDS011;34830;44.064;12.566;2023-04-03T14:43:46;22.63;;;2.72;;
49015;SDS011;34830;44.064;12.566;2023-04-03T14:46:14;14.77;;;2.55;;
49015;SDS011;34830;44.064;12.566;2023-04-03T14:48:41;23.50;;;3.28;;
49015;SDS011;34830;44.064;12.566;2023-04-03T14:51:10;17.15;;;3.42;;
49015;SDS011;34830;44.064;12.566;2023-04-03T14:53:37;20.92;;;2.80;;
49015;SDS011;34830;44.064;12.566;2023-04-03T14:56:05;16.00;;;2.30;;
49015;SDS011;34830;44.064;12.566;2023-04-03T14:58:37;21.02;;;2.85;;
49015;SDS011;34830;44.064;12.566;2023-04-03T15:01:03;19.52;;;3.63;;
49015;SDS011;34830;44.064;12.566;2023-04-03T15:03:29;14.63;;;2.20;;
49015;SDS011;34830;44.064;12.566;2023-04-03T15:05:55;15.10;;;2.92;;
49015;SDS011;34830;44.064;12.566;2023-04-03T15:08:22;27.15;;;3.45;;
49015;SDS011;34830;44.064;12.566;2023-04-03T15:10:51;19.05;;;2.97;;
49015;SDS011;34830;44.064;12.566;2023-04-03T15:13:18;21.95;;;2.85;;
49015;SDS011;34830;44.064;12.566;2023-04-03T15:15:45;18.58;;;2.85;;
49015;SDS011;34830;44.064;12.566;2023-04-03T15:18:14;18.48;;;2.55;;
49015;SDS011;34830;44.064;12.566;2023-04-03T15:20:42;16.38;;;2.20;;
49015;SDS011;34830;44.064;12.566;2023-04-03T15:23:09;24.30;;;2.53;;
49015;SDS011;34830;44.064;12.566;2023-04-03T15:25:37;13.80;;;2.30;;
49015;SDS011;34830;44.064;12.566;2023-04-03T15:28:03;24.35;;;2.95;;
49015;SDS011;34830;44.064;12.566;2023-04-03T15:30:29;14.20;;;3.03;;
49015;SDS011;34830;44.064;12.566;2023-04-03T15:32:56;13.50;;;2.25;;
49015;SDS011;34830;44.064;12.566;2023-04-03T15:35:22;19.48;;;3.00;;
49015;SDS011;34830;44.064;12.566;2023-04-03T15:37:48;22.88;;;2.50;;
49015;SDS011;34830;44.064;12.566;2023-04-03T15:40:14;17.58;;;3.97;;
49015;SDS011;34830;44.064;12.566;2023-04-03T15:42:40;23.75;;;4.40;;
49015;SDS011;34830;44.064;12.566;2023-04-03T15:45:06;12.68;;;1.80;;
49015;SDS011;34830;44.064;12.566;2023-04-03T15:47:33;18.05;;;2.58;;
49015;SDS011;34830;44.064;12.566;2023-04-03T15:49:59;14.60;;;2.42;;
49015;SDS011;34830;44.064;12.566;2023-04-03T15:52:25;17.98;;;2.63;;
49015;SDS011;34830;44.064;12.566;2023-04-03T15:54:51;21.13;;;3.42;;
49015;SDS011;34830;44.064;12.566;2023-04-03T15:57:17;26.10;;;2.47;;
49015;SDS011;34830;44.064;12.566;2023-04-03T15:59:43;18.77;;;2.90;;